Aviation Digital Data Service (ADDS)

Output produced by METARs form (1822 UTC 22 November 2017)
found at http://www.aviationweather.gov/adds/metars/
 
KUAO 221734Z 2218/2318 VRB03KT 3SM -RA BR SCT040 OVC050 
     FM222100 18005KT 6SM -RA BR SCT035 OVC050 
     FM230000 16005KT 6SM -RADZ BR BKN025 OVC035 
     FM230700 19008G15KT 4SM -RADZ BR BKN015 OVC025
       
KUES 221726Z 2218/2318 25006KT P6SM SKC 
     FM222100 21007KT P6SM BKN250 
     FM230300 21008KT P6SM OVC060 
     FM231500 25007KT P6SM FEW250
       
KUIN 221723Z 2218/2318 26004KT P6SM SKC 
     FM230000 19004KT P6SM SCT250 
     FM230600 19009KT P6SM BKN090 
     FM231400 25008KT P6SM FEW250
       
KUKI 221736Z 2218/2318 VRB05KT 1/4SM FG VV002 
     TEMPO 2218/2219 3SM BR SCT002 
     FM221900 15004KT P6SM BKN250 
     FM230400 00000KT 6SM BR FEW003 
     FM231200 VRB03KT 3/4SM BR OVC004
       
KUNV 221742Z 2218/2318 31008G15KT P6SM BKN029 BKN045 OVC050 
     FM230400 31006KT P6SM SCT250 
     FM231100 27003KT P6SM SKC 
     FM231300 26004KT P6SM FEW250
       
KUTS 221723Z 2218/2318 VRB06KT P6SM SKC 
     FM230000 33003KT P6SM SKC